sensor_id;sensor_type;location;lat;lon;timestamp;P1;durP1;ratioP1;P2;durP2;ratioP2
56427;SDS011;42331;53.578;9.760;2023-03-19T00:02:09;16.80;;;12.00;;
56427;SDS011;42331;53.578;9.760;2023-03-19T00:04:40;15.35;;;11.38;;
56427;SDS011;42331;53.578;9.760;2023-03-19T00:07:11;13.77;;;11.07;;
56427;SDS011;42331;53.578;9.760;2023-03-19T00:09:43;17.27;;;12.77;;
56427;SDS011;42331;53.578;9.760;2023-03-19T00:12:14;15.57;;;12.05;;
56427;SDS011;42331;53.578;9.760;2023-03-19T00:14:45;13.10;;;8.98;;
56427;SDS011;42331;53.578;9.760;2023-03-19T00:17:16;18.08;;;11.57;;
56427;SDS011;42331;53.578;9.760;2023-03-19T00:19:47;15.43;;;11.15;;
56427;SDS011;42331;53.578;9.760;2023-03-19T00:22:17;16.02;;;11.18;;
56427;SDS011;42331;53.578;9.760;2023-03-19T00:24:48;18.48;;;12.15;;
56427;SDS011;42331;53.578;9.760;2023-03-19T00:27:19;15.27;;;11.02;;
56427;SDS011;42331;53.578;9.760;2023-03-19T00:29:50;15.90;;;9.87;;
56427;SDS011;42331;53.578;9.760;2023-03-19T00:32:20;12.75;;;9.80;;
56427;SDS011;42331;53.578;9.760;2023-03-19T00:34:51;12.77;;;9.25;;
56427;SDS011;42331;53.578;9.760;2023-03-19T00:37:22;11.18;;;8.00;;
56427;SDS011;42331;53.578;9.760;2023-03-19T00:39:52;9.98;;;7.20;;
56427;SDS011;42331;53.578;9.760;2023-03-19T00:42:23;9.18;;;6.80;;
56427;SDS011;42331;53.578;9.760;2023-03-19T00:44:54;10.63;;;7.28;;
56427;SDS011;42331;53.578;9.760;2023-03-19T00:47:25;8.48;;;6.43;;
56427;SDS011;42331;53.578;9.760;2023-03-19T00:49:57;10.40;;;5.63;;
56427;SDS011;42331;53.578;9.760;2023-03-19T00:52:28;7.43;;;4.80;;
56427;SDS011;42331;53.578;9.760;2023-03-19T00:54:59;9.25;;;4.90;;
56427;SDS011;42331;53.578;9.760;2023-03-19T00:57:29;5.60;;;4.35;;
56427;SDS011;42331;53.578;9.760;2023-03-19T01:00:00;6.47;;;4.45;;
56427;SDS011;42331;53.578;9.760;2023-03-19T01:02:31;7.82;;;3.88;;
56427;SDS011;42331;53.578;9.760;2023-03-19T01:05:02;5.00;;;3.80;;
56427;SDS011;42331;53.578;9.760;2023-03-19T01:07:33;7.15;;;3.95;;
56427;SDS011;42331;53.578;9.760;2023-03-19T01:10:03;7.80;;;4.00;;
56427;SDS011;42331;53.578;9.760;2023-03-19T01:12:35;5.93;;;3.80;;
56427;SDS011;42331;53.578;9.760;2023-03-19T01:15:06;5.05;;;3.35;;
56427;SDS011;42331;53.578;9.760;2023-03-19T01:20:08;5.05;;;3.67;;
56427;SDS011;42331;53.578;9.760;2023-03-19T01:22:42;5.30;;;3.50;;
56427;SDS011;42331;53.578;9.760;2023-03-19T01:25:13;5.93;;;3.65;;
56427;SDS011;42331;53.578;9.760;2023-03-19T01:27:44;6.00;;;3.78;;
56427;SDS011;42331;53.578;9.760;2023-03-19T01:30:15;4.03;;;2.90;;
56427;SDS011;42331;53.578;9.760;2023-03-19T01:32:46;4.13;;;3.28;;
56427;SDS011;42331;53.578;9.760;2023-03-19T01:35:17;6.15;;;3.50;;
56427;SDS011;42331;53.578;9.760;2023-03-19T01:37:48;6.25;;;3.70;;
56427;SDS011;42331;53.578;9.760;2023-03-19T01:40:18;4.15;;;2.95;;
56427;SDS011;42331;53.578;9.760;2023-03-19T01:42:54;5.35;;;2.85;;
56427;SDS011;42331;53.578;9.760;2023-03-19T01:45:33;3.75;;;2.83;;
56427;SDS011;42331;53.578;9.760;2023-03-19T01:48:08;3.67;;;2.45;;
56427;SDS011;42331;53.578;9.760;2023-03-19T01:51:07;4.65;;;2.40;;
56427;SDS011;42331;53.578;9.760;2023-03-19T01:53:40;4.00;;;2.38;;
56427;SDS011;42331;53.578;9.760;2023-03-19T01:56:18;3.80;;;2.33;;
56427;SDS011;42331;53.578;9.760;2023-03-19T01:58:56;3.42;;;1.90;;
56427;SDS011;42331;53.578;9.760;2023-03-19T02:01:32;4.05;;;2.00;;
56427;SDS011;42331;53.578;9.760;2023-03-19T02:04:07;3.95;;;1.98;;
56427;SDS011;42331;53.578;9.760;2023-03-19T02:06:38;2.78;;;1.63;;
56427;SDS011;42331;53.578;9.760;2023-03-19T02:09:10;2.63;;;1.58;;
56427;SDS011;42331;53.578;9.760;2023-03-19T02:11:43;3.78;;;1.77;;
56427;SDS011;42331;53.578;9.760;2023-03-19T02:14:15;2.38;;;1.73;;
56427;SDS011;42331;53.578;9.760;2023-03-19T02:16:46;3.38;;;1.90;;
56427;SDS011;42331;53.578;9.760;2023-03-19T02:19:19;3.60;;;2.00;;
56427;SDS011;42331;53.578;9.760;2023-03-19T02:21:57;4.47;;;2.45;;
56427;SDS011;42331;53.578;9.760;2023-03-19T02:24:40;7.43;;;2.95;;
56427;SDS011;42331;53.578;9.760;2023-03-19T02:27:18;5.25;;;3.00;;
56427;SDS011;42331;53.578;9.760;2023-03-19T02:29:49;6.88;;;3.30;;
56427;SDS011;42331;53.578;9.760;2023-03-19T02:32:20;4.45;;;3.10;;
56427;SDS011;42331;53.578;9.760;2023-03-19T02:34:51;4.47;;;2.85;;
56427;SDS011;42331;53.578;9.760;2023-03-19T02:37:23;4.72;;;3.13;;
56427;SDS011;42331;53.578;9.760;2023-03-19T02:40:02;5.88;;;3.20;;
56427;SDS011;42331;53.578;9.760;2023-03-19T02:42:37;5.05;;;3.00;;
56427;SDS011;42331;53.578;9.760;2023-03-19T02:45:07;6.28;;;3.30;;
56427;SDS011;42331;53.578;9.760;2023-03-19T02:47:39;4.73;;;2.80;;
56427;SDS011;42331;53.578;9.760;2023-03-19T02:50:10;5.27;;;3.00;;
56427;SDS011;42331;53.578;9.760;2023-03-19T02:52:41;7.63;;;3.20;;
56427;SDS011;42331;53.578;9.760;2023-03-19T02:55:11;3.53;;;2.47;;
56427;SDS011;42331;53.578;9.760;2023-03-19T02:57:42;5.10;;;3.25;;
56427;SDS011;42331;53.578;9.760;2023-03-19T03:00:14;6.15;;;2.92;;
56427;SDS011;42331;53.578;9.760;2023-03-19T03:02:47;5.75;;;3.55;;
56427;SDS011;42331;53.578;9.760;2023-03-19T03:05:18;4.35;;;2.05;;
56427;SDS011;42331;53.578;9.760;2023-03-19T03:07:50;3.58;;;2.38;;
56427;SDS011;42331;53.578;9.760;2023-03-19T03:10:21;4.15;;;2.53;;
56427;SDS011;42331;53.578;9.760;2023-03-19T03:12:51;4.95;;;2.58;;
56427;SDS011;42331;53.578;9.760;2023-03-19T03:15:22;3.90;;;2.30;;
56427;SDS011;42331;53.578;9.760;2023-03-19T03:17:55;5.75;;;2.60;;
56427;SDS011;42331;53.578;9.760;2023-03-19T03:20:26;4.07;;;2.28;;
56427;SDS011;42331;53.578;9.760;2023-03-19T03:22:57;5.20;;;2.05;;
56427;SDS011;42331;53.578;9.760;2023-03-19T03:25:27;5.00;;;2.42;;
56427;SDS011;42331;53.578;9.760;2023-03-19T03:27:59;5.90;;;2.40;;
56427;SDS011;42331;53.578;9.760;2023-03-19T03:30:30;4.65;;;2.53;;
56427;SDS011;42331;53.578;9.760;2023-03-19T03:33:01;4.93;;;2.70;;
56427;SDS011;42331;53.578;9.760;2023-03-19T03:35:32;4.45;;;2.90;;
56427;SDS011;42331;53.578;9.760;2023-03-19T03:38:03;7.13;;;3.63;;
56427;SDS011;42331;53.578;9.760;2023-03-19T03:40:34;5.40;;;3.00;;
56427;SDS011;42331;53.578;9.760;2023-03-19T03:43:05;4.38;;;2.50;;
56427;SDS011;42331;53.578;9.760;2023-03-19T03:45:36;7.40;;;3.60;;
56427;SDS011;42331;53.578;9.760;2023-03-19T03:48:06;5.03;;;3.47;;
56427;SDS011;42331;53.578;9.760;2023-03-19T03:50:37;5.88;;;3.38;;
56427;SDS011;42331;53.578;9.760;2023-03-19T03:53:08;5.00;;;3.25;;
56427;SDS011;42331;53.578;9.760;2023-03-19T03:55:39;6.37;;;3.37;;
56427;SDS011;42331;53.578;9.760;2023-03-19T03:58:10;4.43;;;3.15;;
56427;SDS011;42331;53.578;9.760;2023-03-19T04:00:42;4.82;;;3.20;;
56427;SDS011;42331;53.578;9.760;2023-03-19T04:03:13;3.88;;;2.17;;
56427;SDS011;42331;53.578;9.760;2023-03-19T04:05:44;5.20;;;3.00;;
56427;SDS011;42331;53.578;9.760;2023-03-19T04:08:15;5.45;;;3.03;;
56427;SDS011;42331;53.578;9.760;2023-03-19T04:10:45;5.20;;;2.77;;
56427;SDS011;42331;53.578;9.760;2023-03-19T04:13:16;6.07;;;2.80;;
56427;SDS011;42331;53.578;9.760;2023-03-19T04:15:47;4.45;;;3.00;;
56427;SDS011;42331;53.578;9.760;2023-03-19T04:18:17;4.75;;;2.90;;
56427;SDS011;42331;53.578;9.760;2023-03-19T04:20:48;3.10;;;2.08;;
56427;SDS011;42331;53.578;9.760;2023-03-19T04:23:19;6.03;;;2.83;;
56427;SDS011;42331;53.578;9.760;2023-03-19T04:25:50;10.23;;;8.30;;
56427;SDS011;42331;53.578;9.760;2023-03-19T04:28:21;8.87;;;4.67;;
56427;SDS011;42331;53.578;9.760;2023-03-19T04:30:51;8.45;;;6.50;;
56427;SDS011;42331;53.578;9.760;2023-03-19T04:33:27;7.75;;;6.85;;
56427;SDS011;42331;53.578;9.760;2023-03-19T04:35:58;8.80;;;7.90;;
56427;SDS011;42331;53.578;9.760;2023-03-19T04:38:30;10.07;;;9.00;;
56427;SDS011;42331;53.578;9.760;2023-03-19T04:41:01;9.45;;;8.50;;
56427;SDS011;42331;53.578;9.760;2023-03-19T04:43:31;9.93;;;8.07;;
56427;SDS011;42331;53.578;9.760;2023-03-19T04:46:02;10.55;;;7.28;;
56427;SDS011;42331;53.578;9.760;2023-03-19T04:48:33;8.25;;;6.28;;
56427;SDS011;42331;53.578;9.760;2023-03-19T04:51:04;6.97;;;5.25;;
56427;SDS011;42331;53.578;9.760;2023-03-19T04:53:38;6.25;;;4.72;;
56427;SDS011;42331;53.578;9.760;2023-03-19T04:56:09;3.97;;;3.03;;
56427;SDS011;42331;53.578;9.760;2023-03-19T04:58:40;5.65;;;3.53;;
56427;SDS011;42331;53.578;9.760;2023-03-19T05:01:11;4.82;;;3.53;;
56427;SDS011;42331;53.578;9.760;2023-03-19T05:03:42;5.32;;;3.55;;
56427;SDS011;42331;53.578;9.760;2023-03-19T05:06:13;5.45;;;3.47;;
56427;SDS011;42331;53.578;9.760;2023-03-19T05:08:44;6.73;;;3.73;;
56427;SDS011;42331;53.578;9.760;2023-03-19T05:11:15;5.55;;;3.38;;
56427;SDS011;42331;53.578;9.760;2023-03-19T05:13:46;6.38;;;3.88;;
56427;SDS011;42331;53.578;9.760;2023-03-19T05:16:17;6.18;;;3.72;;
56427;SDS011;42331;53.578;9.760;2023-03-19T05:18:47;7.70;;;3.90;;
56427;SDS011;42331;53.578;9.760;2023-03-19T05:21:18;6.97;;;2.78;;
56427;SDS011;42331;53.578;9.760;2023-03-19T05:23:49;7.03;;;3.83;;
56427;SDS011;42331;53.578;9.760;2023-03-19T05:26:21;6.47;;;3.70;;
56427;SDS011;42331;53.578;9.760;2023-03-19T05:28:52;6.47;;;3.67;;
56427;SDS011;42331;53.578;9.760;2023-03-19T05:31:23;6.53;;;3.65;;
56427;SDS011;42331;53.578;9.760;2023-03-19T05:33:53;7.07;;;4.63;;
56427;SDS011;42331;53.578;9.760;2023-03-19T05:36:24;6.10;;;4.13;;
56427;SDS011;42331;53.578;9.760;2023-03-19T05:38:55;5.57;;;3.80;;
56427;SDS011;42331;53.578;9.760;2023-03-19T05:41:26;7.22;;;3.95;;
56427;SDS011;42331;53.578;9.760;2023-03-19T05:43:56;4.85;;;2.53;;
56427;SDS011;42331;53.578;9.760;2023-03-19T05:46:27;4.18;;;2.47;;
56427;SDS011;42331;53.578;9.760;2023-03-19T05:48:58;4.72;;;3.25;;
56427;SDS011;42331;53.578;9.760;2023-03-19T05:51:28;7.20;;;4.38;;
56427;SDS011;42331;53.578;9.760;2023-03-19T05:54:00;6.70;;;4.37;;
56427;SDS011;42331;53.578;9.760;2023-03-19T05:56:31;5.30;;;3.87;;
56427;SDS011;42331;53.578;9.760;2023-03-19T05:59:01;7.25;;;4.45;;
56427;SDS011;42331;53.578;9.760;2023-03-19T06:01:32;6.00;;;4.35;;
56427;SDS011;42331;53.578;9.760;2023-03-19T06:04:03;5.65;;;3.95;;
56427;SDS011;42331;53.578;9.760;2023-03-19T06:06:34;6.63;;;4.10;;
56427;SDS011;42331;53.578;9.760;2023-03-19T06:09:05;9.70;;;5.60;;
56427;SDS011;42331;53.578;9.760;2023-03-19T06:11:36;5.20;;;3.28;;
56427;SDS011;42331;53.578;9.760;2023-03-19T06:14:08;6.70;;;4.43;;
56427;SDS011;42331;53.578;9.760;2023-03-19T06:16:39;7.85;;;5.22;;
56427;SDS011;42331;53.578;9.760;2023-03-19T06:19:10;6.57;;;4.18;;
56427;SDS011;42331;53.578;9.760;2023-03-19T06:21:41;6.65;;;4.68;;
56427;SDS011;42331;53.578;9.760;2023-03-19T06:24:11;6.88;;;4.82;;
56427;SDS011;42331;53.578;9.760;2023-03-19T06:26:42;6.47;;;4.65;;
56427;SDS011;42331;53.578;9.760;2023-03-19T06:29:13;6.57;;;4.63;;
56427;SDS011;42331;53.578;9.760;2023-03-19T06:31:43;8.13;;;4.95;;
56427;SDS011;42331;53.578;9.760;2023-03-19T06:34:15;9.70;;;5.40;;
56427;SDS011;42331;53.578;9.760;2023-03-19T06:36:46;7.23;;;4.90;;
56427;SDS011;42331;53.578;9.760;2023-03-19T06:39:16;8.27;;;5.15;;
56427;SDS011;42331;53.578;9.760;2023-03-19T06:41:47;7.28;;;5.00;;
56427;SDS011;42331;53.578;9.760;2023-03-19T06:44:18;7.10;;;5.00;;
56427;SDS011;42331;53.578;9.760;2023-03-19T06:46:49;6.82;;;4.85;;
56427;SDS011;42331;53.578;9.760;2023-03-19T06:49:19;7.10;;;4.55;;
56427;SDS011;42331;53.578;9.760;2023-03-19T06:52:03;7.50;;;5.10;;
56427;SDS011;42331;53.578;9.760;2023-03-19T06:54:34;11.85;;;6.25;;
56427;SDS011;42331;53.578;9.760;2023-03-19T06:57:05;7.25;;;5.32;;
56427;SDS011;42331;53.578;9.760;2023-03-19T06:59:36;6.22;;;4.80;;
56427;SDS011;42331;53.578;9.760;2023-03-19T07:02:08;8.85;;;5.88;;
56427;SDS011;42331;53.578;9.760;2023-03-19T07:04:42;9.98;;;6.40;;
56427;SDS011;42331;53.578;9.760;2023-03-19T07:07:13;10.05;;;6.40;;
56427;SDS011;42331;53.578;9.760;2023-03-19T07:09:44;9.38;;;6.50;;
56427;SDS011;42331;53.578;9.760;2023-03-19T07:12:14;9.85;;;6.05;;
56427;SDS011;42331;53.578;9.760;2023-03-19T07:14:45;7.72;;;5.75;;
56427;SDS011;42331;53.578;9.760;2023-03-19T07:17:16;8.30;;;5.35;;
56427;SDS011;42331;53.578;9.760;2023-03-19T07:19:46;8.85;;;5.75;;
56427;SDS011;42331;53.578;9.760;2023-03-19T07:22:17;7.47;;;5.53;;
56427;SDS011;42331;53.578;9.760;2023-03-19T07:24:48;8.57;;;5.50;;
56427;SDS011;42331;53.578;9.760;2023-03-19T07:27:20;9.48;;;5.65;;
56427;SDS011;42331;53.578;9.760;2023-03-19T07:29:51;7.68;;;5.18;;
56427;SDS011;42331;53.578;9.760;2023-03-19T07:32:25;10.02;;;5.70;;
56427;SDS011;42331;53.578;9.760;2023-03-19T07:35:24;8.18;;;5.75;;
56427;SDS011;42331;53.578;9.760;2023-03-19T07:37:55;9.27;;;5.60;;
56427;SDS011;42331;53.578;9.760;2023-03-19T07:40:29;8.68;;;5.70;;
56427;SDS011;42331;53.578;9.760;2023-03-19T07:43:00;10.10;;;5.72;;
56427;SDS011;42331;53.578;9.760;2023-03-19T07:45:31;10.30;;;5.10;;
56427;SDS011;42331;53.578;9.760;2023-03-19T07:48:02;9.63;;;6.00;;
56427;SDS011;42331;53.578;9.760;2023-03-19T07:50:33;6.07;;;4.03;;
56427;SDS011;42331;53.578;9.760;2023-03-19T07:53:04;10.10;;;5.80;;
56427;SDS011;42331;53.578;9.760;2023-03-19T07:55:35;7.38;;;5.65;;
56427;SDS011;42331;53.578;9.760;2023-03-19T07:58:08;11.05;;;6.13;;
56427;SDS011;42331;53.578;9.760;2023-03-19T08:00:40;7.97;;;6.07;;
56427;SDS011;42331;53.578;9.760;2023-03-19T08:03:11;9.35;;;5.53;;
56427;SDS011;42331;53.578;9.760;2023-03-19T08:05:42;8.40;;;5.90;;
56427;SDS011;42331;53.578;9.760;2023-03-19T08:11:53;8.05;;;5.47;;
56427;SDS011;42331;53.578;9.760;2023-03-19T08:14:42;7.65;;;5.82;;
56427;SDS011;42331;53.578;9.760;2023-03-19T08:17:13;5.65;;;4.22;;
56427;SDS011;42331;53.578;9.760;2023-03-19T08:19:44;7.00;;;5.45;;
56427;SDS011;42331;53.578;9.760;2023-03-19T08:22:15;8.50;;;5.53;;
56427;SDS011;42331;53.578;9.760;2023-03-19T08:24:46;12.20;;;5.68;;
56427;SDS011;42331;53.578;9.760;2023-03-19T08:27:17;9.23;;;5.70;;
56427;SDS011;42331;53.578;9.760;2023-03-19T08:29:47;8.32;;;5.57;;
56427;SDS011;42331;53.578;9.760;2023-03-19T08:32:18;7.80;;;5.72;;
56427;SDS011;42331;53.578;9.760;2023-03-19T08:34:49;10.60;;;5.95;;
56427;SDS011;42331;53.578;9.760;2023-03-19T08:37:20;10.10;;;6.07;;
56427;SDS011;42331;53.578;9.760;2023-03-19T08:39:51;12.73;;;5.78;;
56427;SDS011;42331;53.578;9.760;2023-03-19T08:42:22;6.97;;;5.50;;
56427;SDS011;42331;53.578;9.760;2023-03-19T08:44:53;7.38;;;5.15;;
56427;SDS011;42331;53.578;9.760;2023-03-19T08:47:23;8.63;;;5.25;;
56427;SDS011;42331;53.578;9.760;2023-03-19T08:49:54;8.30;;;4.93;;
56427;SDS011;42331;53.578;9.760;2023-03-19T08:52:25;7.75;;;4.93;;
56427;SDS011;42331;53.578;9.760;2023-03-19T08:54:56;8.25;;;4.63;;
56427;SDS011;42331;53.578;9.760;2023-03-19T08:57:28;10.73;;;5.07;;
56427;SDS011;42331;53.578;9.760;2023-03-19T09:00:00;8.70;;;4.97;;
56427;SDS011;42331;53.578;9.760;2023-03-19T09:02:31;4.57;;;3.30;;
56427;SDS011;42331;53.578;9.760;2023-03-19T09:05:02;6.87;;;4.60;;
56427;SDS011;42331;53.578;9.760;2023-03-19T09:07:33;7.28;;;4.78;;
56427;SDS011;42331;53.578;9.760;2023-03-19T09:10:04;7.82;;;5.40;;
56427;SDS011;42331;53.578;9.760;2023-03-19T09:12:35;8.02;;;5.00;;
56427;SDS011;42331;53.578;9.760;2023-03-19T09:15:06;8.45;;;5.15;;
56427;SDS011;42331;53.578;9.760;2023-03-19T09:17:37;9.53;;;5.17;;
56427;SDS011;42331;53.578;9.760;2023-03-19T09:20:08;7.43;;;4.80;;
56427;SDS011;42331;53.578;9.760;2023-03-19T09:22:39;6.18;;;4.57;;
56427;SDS011;42331;53.578;9.760;2023-03-19T09:25:10;9.13;;;5.03;;
56427;SDS011;42331;53.578;9.760;2023-03-19T09:27:41;11.32;;;5.53;;
56427;SDS011;42331;53.578;9.760;2023-03-19T09:30:11;8.90;;;5.28;;
56427;SDS011;42331;53.578;9.760;2023-03-19T09:32:43;7.22;;;5.03;;
56427;SDS011;42331;53.578;9.760;2023-03-19T09:35:13;5.80;;;3.45;;
56427;SDS011;42331;53.578;9.760;2023-03-19T09:37:44;6.47;;;3.85;;
56427;SDS011;42331;53.578;9.760;2023-03-19T09:40:21;7.13;;;4.68;;
56427;SDS011;42331;53.578;9.760;2023-03-19T09:43:08;7.25;;;4.43;;
56427;SDS011;42331;53.578;9.760;2023-03-19T09:46:00;9.20;;;4.63;;
56427;SDS011;42331;53.578;9.760;2023-03-19T09:48:44;8.82;;;5.00;;
56427;SDS011;42331;53.578;9.760;2023-03-19T09:51:27;10.65;;;4.68;;
56427;SDS011;42331;53.578;9.760;2023-03-19T09:54:43;7.60;;;4.47;;
56427;SDS011;42331;53.578;9.760;2023-03-19T09:57:27;8.07;;;4.90;;
56427;SDS011;42331;53.578;9.760;2023-03-19T09:59:59;7.22;;;4.20;;
56427;SDS011;42331;53.578;9.760;2023-03-19T10:02:37;6.28;;;3.90;;
56427;SDS011;42331;53.578;9.760;2023-03-19T10:05:26;9.13;;;4.50;;
56427;SDS011;42331;53.578;9.760;2023-03-19T10:14:35;7.05;;;4.13;;
56427;SDS011;42331;53.578;9.760;2023-03-19T10:16:34;7.10;;;4.22;;
56427;SDS011;42331;53.578;9.760;2023-03-19T10:19:09;10.07;;;3.92;;
56427;SDS011;42331;53.578;9.760;2023-03-19T10:21:53;7.57;;;4.30;;
56427;SDS011;42331;53.578;9.760;2023-03-19T10:27:11;7.47;;;4.15;;
56427;SDS011;42331;53.578;9.760;2023-03-19T10:29:47;5.80;;;3.95;;
56427;SDS011;42331;53.578;9.760;2023-03-19T10:34:51;6.30;;;3.90;;
56427;SDS011;42331;53.578;9.760;2023-03-19T10:37:28;6.65;;;3.70;;
56427;SDS011;42331;53.578;9.760;2023-03-19T10:39:59;8.82;;;4.10;;
56427;SDS011;42331;53.578;9.760;2023-03-19T10:42:51;5.78;;;3.80;;
56427;SDS011;42331;53.578;9.760;2023-03-19T10:45:31;5.40;;;3.88;;
56427;SDS011;42331;53.578;9.760;2023-03-19T10:48:04;7.32;;;3.95;;
56427;SDS011;42331;53.578;9.760;2023-03-19T10:50:45;8.82;;;4.03;;
56427;SDS011;42331;53.578;9.760;2023-03-19T10:53:28;8.77;;;3.88;;
56427;SDS011;42331;53.578;9.760;2023-03-19T10:56:04;7.00;;;3.83;;
56427;SDS011;42331;53.578;9.760;2023-03-19T10:58:55;8.02;;;3.50;;
56427;SDS011;42331;53.578;9.760;2023-03-19T11:01:38;7.28;;;4.10;;
56427;SDS011;42331;53.578;9.760;2023-03-19T11:04:12;9.60;;;4.15;;
56427;SDS011;42331;53.578;9.760;2023-03-19T11:06:51;8.27;;;4.70;;
56427;SDS011;42331;53.578;9.760;2023-03-19T11:09:33;7.18;;;4.30;;
56427;SDS011;42331;53.578;9.760;2023-03-19T11:12:19;8.40;;;4.53;;
56427;SDS011;42331;53.578;9.760;2023-03-19T11:14:58;8.55;;;4.15;;
56427;SDS011;42331;53.578;9.760;2023-03-19T11:20:17;6.25;;;3.67;;
56427;SDS011;42331;53.578;9.760;2023-03-19T11:22:49;7.32;;;4.30;;
56427;SDS011;42331;53.578;9.760;2023-03-19T11:34:00;6.82;;;3.60;;
56427;SDS011;42331;53.578;9.760;2023-03-19T11:48:17;4.03;;;2.13;;
56427;SDS011;42331;53.578;9.760;2023-03-19T11:50:58;4.30;;;2.05;;
56427;SDS011;42331;53.578;9.760;2023-03-19T11:54:03;4.15;;;1.80;;
56427;SDS011;42331;53.578;9.760;2023-03-19T11:56:57;3.63;;;1.60;;
56427;SDS011;42331;53.578;9.760;2023-03-19T12:08:05;4.00;;;1.80;;
56427;SDS011;42331;53.578;9.760;2023-03-19T12:10:54;4.65;;;1.90;;
56427;SDS011;42331;53.578;9.760;2023-03-19T12:25:23;4.87;;;2.33;;
56427;SDS011;42331;53.578;9.760;2023-03-19T12:28:07;5.88;;;2.58;;
56427;SDS011;42331;53.578;9.760;2023-03-19T12:30:48;5.22;;;2.70;;
56427;SDS011;42331;53.578;9.760;2023-03-19T12:33:48;4.88;;;2.33;;
56427;SDS011;42331;53.578;9.760;2023-03-19T12:36:28;6.65;;;2.40;;
56427;SDS011;42331;53.578;9.760;2023-03-19T12:41:47;6.00;;;2.38;;
56427;SDS011;42331;53.578;9.760;2023-03-19T12:44:31;6.65;;;2.60;;
56427;SDS011;42331;53.578;9.760;2023-03-19T12:47:08;5.70;;;2.40;;
56427;SDS011;42331;53.578;9.760;2023-03-19T12:49:56;6.07;;;2.55;;
56427;SDS011;42331;53.578;9.760;2023-03-19T12:55:13;7.88;;;2.70;;
56427;SDS011;42331;53.578;9.760;2023-03-19T13:00:57;4.38;;;2.38;;
56427;SDS011;42331;53.578;9.760;2023-03-19T13:03:54;5.50;;;2.67;;
56427;SDS011;42331;53.578;9.760;2023-03-19T13:07:06;6.13;;;2.40;;
56427;SDS011;42331;53.578;9.760;2023-03-19T13:12:28;6.72;;;3.30;;
56427;SDS011;42331;53.578;9.760;2023-03-19T13:15:04;5.18;;;2.53;;
56427;SDS011;42331;53.578;9.760;2023-03-19T13:21:04;7.93;;;3.17;;
56427;SDS011;42331;53.578;9.760;2023-03-19T13:23:48;5.50;;;2.90;;
56427;SDS011;42331;53.578;9.760;2023-03-19T13:26:29;7.97;;;3.10;;
56427;SDS011;42331;53.578;9.760;2023-03-19T13:31:36;5.47;;;3.30;;
56427;SDS011;42331;53.578;9.760;2023-03-19T13:39:36;6.97;;;2.80;;
56427;SDS011;42331;53.578;9.760;2023-03-19T13:42:08;9.20;;;3.88;;
56427;SDS011;42331;53.578;9.760;2023-03-19T13:44:53;8.90;;;3.70;;
56427;SDS011;42331;53.578;9.760;2023-03-19T14:05:56;9.95;;;4.57;;
56427;SDS011;42331;53.578;9.760;2023-03-19T14:08:28;6.07;;;4.10;;
56427;SDS011;42331;53.578;9.760;2023-03-19T14:11:20;7.50;;;4.40;;
56427;SDS011;42331;53.578;9.760;2023-03-19T14:13:53;6.97;;;4.13;;
56427;SDS011;42331;53.578;9.760;2023-03-19T14:16:26;8.63;;;4.70;;
56427;SDS011;42331;53.578;9.760;2023-03-19T14:19:01;9.80;;;4.80;;
56427;SDS011;42331;53.578;9.760;2023-03-19T14:24:28;6.80;;;4.90;;
56427;SDS011;42331;53.578;9.760;2023-03-19T14:27:03;11.30;;;5.32;;
56427;SDS011;42331;53.578;9.760;2023-03-19T14:29:47;11.00;;;4.85;;
56427;SDS011;42331;53.578;9.760;2023-03-19T14:32:20;7.80;;;4.80;;
56427;SDS011;42331;53.578;9.760;2023-03-19T14:34:57;8.15;;;4.82;;
56427;SDS011;42331;53.578;9.760;2023-03-19T14:37:30;8.48;;;5.75;;
56427;SDS011;42331;53.578;9.760;2023-03-19T14:40:13;9.75;;;6.70;;
56427;SDS011;42331;53.578;9.760;2023-03-19T14:45:57;11.80;;;7.22;;
56427;SDS011;42331;53.578;9.760;2023-03-19T14:48:54;10.60;;;7.00;;
56427;SDS011;42331;53.578;9.760;2023-03-19T14:57:06;10.75;;;7.80;;
56427;SDS011;42331;53.578;9.760;2023-03-19T14:59:43;11.55;;;8.60;;
56427;SDS011;42331;53.578;9.760;2023-03-19T15:05:12;12.25;;;9.25;;
56427;SDS011;42331;53.578;9.760;2023-03-19T15:08:05;11.98;;;8.95;;
56427;SDS011;42331;53.578;9.760;2023-03-19T15:13:53;14.80;;;10.10;;
56427;SDS011;42331;53.578;9.760;2023-03-19T15:16:48;13.93;;;10.38;;
56427;SDS011;42331;53.578;9.760;2023-03-19T15:19:37;15.75;;;10.63;;
56427;SDS011;42331;53.578;9.760;2023-03-19T15:22:11;11.93;;;9.40;;
56427;SDS011;42331;53.578;9.760;2023-03-19T15:24:44;12.20;;;10.27;;
56427;SDS011;42331;53.578;9.760;2023-03-19T15:27:16;14.45;;;11.27;;
56427;SDS011;42331;53.578;9.760;2023-03-19T15:29:55;13.93;;;10.20;;
56427;SDS011;42331;53.578;9.760;2023-03-19T15:32:36;14.15;;;10.98;;
56427;SDS011;42331;53.578;9.760;2023-03-19T15:37:40;16.00;;;11.45;;
56427;SDS011;42331;53.578;9.760;2023-03-19T15:40:13;14.60;;;10.80;;
56427;SDS011;42331;53.578;9.760;2023-03-19T15:42:46;15.68;;;11.77;;
56427;SDS011;42331;53.578;9.760;2023-03-19T15:45:19;14.98;;;11.43;;
56427;SDS011;42331;53.578;9.760;2023-03-19T15:47:54;14.27;;;11.45;;
56427;SDS011;42331;53.578;9.760;2023-03-19T15:50:46;14.20;;;11.98;;
56427;SDS011;42331;53.578;9.760;2023-03-19T15:53:21;14.57;;;11.32;;
56427;SDS011;42331;53.578;9.760;2023-03-19T15:55:55;17.23;;;11.32;;
56427;SDS011;42331;53.578;9.760;2023-03-19T15:58:30;15.60;;;12.07;;
56427;SDS011;42331;53.578;9.760;2023-03-19T16:01:07;16.40;;;12.27;;
56427;SDS011;42331;53.578;9.760;2023-03-19T16:06:25;18.30;;;12.02;;
56427;SDS011;42331;53.578;9.760;2023-03-19T16:11:54;18.33;;;13.65;;
56427;SDS011;42331;53.578;9.760;2023-03-19T16:17:10;18.92;;;13.77;;
56427;SDS011;42331;53.578;9.760;2023-03-19T16:20:03;18.63;;;13.27;;
56427;SDS011;42331;53.578;9.760;2023-03-19T16:22:35;18.02;;;13.80;;
56427;SDS011;42331;53.578;9.760;2023-03-19T16:25:08;16.55;;;13.90;;
56427;SDS011;42331;53.578;9.760;2023-03-19T16:27:45;16.13;;;13.45;;
56427;SDS011;42331;53.578;9.760;2023-03-19T16:30:24;18.60;;;13.13;;
56427;SDS011;42331;53.578;9.760;2023-03-19T16:33:00;16.75;;;12.20;;
56427;SDS011;42331;53.578;9.760;2023-03-19T16:35:34;16.00;;;13.05;;
56427;SDS011;42331;53.578;9.760;2023-03-19T16:38:15;13.93;;;12.18;;
56427;SDS011;42331;53.578;9.760;2023-03-19T16:43:53;14.23;;;11.98;;
56427;SDS011;42331;53.578;9.760;2023-03-19T16:46:24;14.13;;;11.93;;
56427;SDS011;42331;53.578;9.760;2023-03-19T16:48:55;14.00;;;11.25;;
56427;SDS011;42331;53.578;9.760;2023-03-19T16:51:26;14.90;;;11.57;;
56427;SDS011;42331;53.578;9.760;2023-03-19T16:53:56;15.32;;;11.70;;
56427;SDS011;42331;53.578;9.760;2023-03-19T16:56:28;14.23;;;11.40;;
56427;SDS011;42331;53.578;9.760;2023-03-19T16:59:00;14.35;;;11.15;;
56427;SDS011;42331;53.578;9.760;2023-03-19T17:01:31;13.98;;;11.18;;
56427;SDS011;42331;53.578;9.760;2023-03-19T17:04:04;14.60;;;11.57;;
56427;SDS011;42331;53.578;9.760;2023-03-19T17:06:40;11.77;;;10.50;;
56427;SDS011;42331;53.578;9.760;2023-03-19T17:09:11;13.57;;;10.35;;
56427;SDS011;42331;53.578;9.760;2023-03-19T17:11:42;14.20;;;10.10;;
56427;SDS011;42331;53.578;9.760;2023-03-19T17:14:17;13.75;;;10.57;;
56427;SDS011;42331;53.578;9.760;2023-03-19T17:16:50;13.73;;;10.52;;
56427;SDS011;42331;53.578;9.760;2023-03-19T17:19:25;16.10;;;11.15;;
56427;SDS011;42331;53.578;9.760;2023-03-19T17:22:00;13.27;;;10.63;;
56427;SDS011;42331;53.578;9.760;2023-03-19T17:24:32;16.23;;;11.90;;
56427;SDS011;42331;53.578;9.760;2023-03-19T17:27:03;16.33;;;11.50;;
56427;SDS011;42331;53.578;9.760;2023-03-19T17:29:34;14.10;;;11.60;;
56427;SDS011;42331;53.578;9.760;2023-03-19T17:32:05;16.45;;;12.50;;
56427;SDS011;42331;53.578;9.760;2023-03-19T17:34:43;14.43;;;11.07;;
56427;SDS011;42331;53.578;9.760;2023-03-19T17:37:14;15.48;;;11.32;;
56427;SDS011;42331;53.578;9.760;2023-03-19T17:39:45;19.15;;;11.77;;